createdAt,value
2023-04-26T00:01:11.405Z,51.63
2023-04-26T00:03:40.459Z,51.83
2023-04-26T00:06:10.071Z,51.86
2023-04-26T00:08:36.704Z,51.96
2023-04-26T00:11:03.486Z,52.11
2023-04-26T00:13:30.201Z,51.86
2023-04-26T00:15:56.767Z,51.74
2023-04-26T00:18:23.675Z,51.80
2023-04-26T00:20:50.439Z,52.14
2023-04-26T00:23:17.301Z,51.62
2023-04-26T00:25:43.964Z,52.13
2023-04-26T00:28:10.581Z,52.38
2023-04-26T00:30:41.111Z,52.21
2023-04-26T00:33:09.339Z,51.98
2023-04-26T00:35:35.863Z,52.16
2023-04-26T00:38:02.373Z,52.40
2023-04-26T00:40:30.657Z,52.55
2023-04-26T00:43:00.392Z,52.27
2023-04-26T00:45:27.447Z,52.45
2023-04-26T00:47:54.456Z,52.64
2023-04-26T00:50:21.376Z,52.71
2023-04-26T00:52:48.193Z,52.94
2023-04-26T00:55:16.215Z,53.25
2023-04-26T00:57:45.248Z,52.86
2023-04-26T01:00:12.438Z,52.41
2023-04-26T01:02:39.123Z,52.63
2023-04-26T01:05:06.942Z,52.60
2023-04-26T01:07:34.314Z,52.79
2023-04-26T01:10:05.549Z,53.00
2023-04-26T01:12:33.069Z,52.70
2023-04-26T01:15:00.209Z,52.90
2023-04-26T01:17:26.844Z,53.17
2023-04-26T01:19:56.893Z,52.61
2023-04-26T01:22:23.437Z,52.50
2023-04-26T01:24:51.559Z,52.17
2023-04-26T01:27:18.263Z,52.21
2023-04-26T01:29:46.071Z,52.61
2023-04-26T01:32:12.627Z,52.15
2023-04-26T01:34:39.225Z,51.87
2023-04-26T01:37:07.651Z,52.37
2023-04-26T01:39:34.913Z,52.22
2023-04-26T01:42:02.871Z,52.72
2023-04-26T01:44:31.940Z,52.54
2023-04-26T01:47:00.978Z,52.49
2023-04-26T01:49:27.550Z,52.44
2023-04-26T01:51:55.448Z,52.44
2023-04-26T01:54:23.825Z,52.34
2023-04-26T01:56:50.480Z,52.80
2023-04-26T01:59:17.062Z,53.12
2023-04-26T02:01:43.696Z,53.36
2023-04-26T02:04:10.854Z,52.76
2023-04-26T02:06:42.175Z,52.63
2023-04-26T02:09:11.612Z,52.79
2023-04-26T02:11:40.504Z,52.40
2023-04-26T02:14:07.157Z,52.13
2023-04-26T02:16:33.684Z,52.46
2023-04-26T02:19:00.306Z,52.84
2023-04-26T02:21:28.373Z,52.60
2023-04-26T02:23:54.969Z,53.17
2023-04-26T02:26:21.504Z,53.20
2023-04-26T02:28:48.032Z,52.72
2023-04-26T02:31:14.912Z,52.50
2023-04-26T02:33:41.716Z,52.57
2023-04-26T02:36:09.106Z,52.46
2023-04-26T02:38:36.421Z,52.27
2023-04-26T02:41:04.656Z,52.48
2023-04-26T02:43:31.693Z,52.59
2023-04-26T02:46:01.599Z,52.71
2023-04-26T02:48:29.717Z,52.82
2023-04-26T02:50:57.230Z,53.32
2023-04-26T02:53:23.884Z,52.67
2023-04-26T02:55:51.183Z,52.33
2023-04-26T02:58:18.255Z,52.71
2023-04-26T03:00:48.319Z,52.96
2023-04-26T03:03:15.545Z,53.28
2023-04-26T03:05:42.384Z,52.40
2023-04-26T03:08:09.169Z,52.78
2023-04-26T03:10:35.725Z,52.74
2023-04-26T03:13:03.732Z,52.68
2023-04-26T03:15:30.510Z,52.40
2023-04-26T03:18:00.853Z,52.59
2023-04-26T03:20:27.697Z,52.30
2023-04-26T03:22:54.579Z,52.08
2023-04-26T03:25:21.389Z,51.79
2023-04-26T03:27:47.913Z,51.95
2023-04-26T03:30:15.046Z,51.89
2023-04-26T03:32:43.939Z,51.70
2023-04-26T03:35:10.634Z,51.73
2023-04-26T03:37:39.722Z,52.37
2023-04-26T03:40:09.847Z,52.41
2023-04-26T03:42:37.114Z,52.29
2023-04-26T03:45:04.521Z,52.26
2023-04-26T03:47:31.591Z,51.79
2023-04-26T03:49:58.361Z,52.03
2023-04-26T03:52:25.329Z,52.14
2023-04-26T03:54:52.087Z,51.75
2023-04-26T03:57:18.696Z,52.50
2023-04-26T03:59:45.269Z,52.49
2023-04-26T04:02:11.871Z,52.44
2023-04-26T04:04:38.616Z,52.79
2023-04-26T04:07:05.699Z,52.86
2023-04-26T04:09:33.593Z,52.58
2023-04-26T04:12:00.250Z,52.62
2023-04-26T04:14:26.879Z,52.32
2023-04-26T04:16:53.396Z,52.10
2023-04-26T04:19:20.050Z,51.88
2023-04-26T04:21:47.305Z,52.20
2023-04-26T04:24:13.892Z,52.16
2023-04-26T04:26:40.450Z,52.07
2023-04-26T04:29:09.105Z,52.14
2023-04-26T04:31:37.237Z,51.89
2023-04-26T04:34:04.104Z,52.07
2023-04-26T04:36:31.241Z,52.02
2023-04-26T04:38:58.153Z,51.84
2023-04-26T04:41:24.710Z,52.03
2023-04-26T04:43:51.455Z,52.14
2023-04-26T04:46:18.083Z,52.34
2023-04-26T04:48:44.976Z,51.91
2023-04-26T04:51:11.930Z,51.39
2023-04-26T04:53:38.648Z,51.60
2023-04-26T04:56:05.998Z,51.74
2023-04-26T04:58:32.571Z,51.92
2023-04-26T05:01:01.158Z,51.75
2023-04-26T05:03:30.116Z,51.91
2023-04-26T05:05:57.227Z,52.09
2023-04-26T05:08:24.687Z,52.13
2023-04-26T05:10:51.784Z,52.24
2023-04-26T05:13:18.352Z,52.06
2023-04-26T05:15:44.951Z,52.07
2023-04-26T05:18:11.489Z,52.49
2023-04-26T05:20:38.976Z,52.09
2023-04-26T05:23:05.555Z,52.19
2023-04-26T05:25:32.127Z,52.13
2023-04-26T05:28:12.442Z,51.64
2023-04-26T05:30:50.528Z,51.36
2023-04-26T05:33:33.949Z,50.81
2023-04-26T05:36:13.630Z,50.82
2023-04-26T05:38:41.311Z,51.20
2023-04-26T05:41:07.878Z,51.29
2023-04-26T05:43:34.619Z,50.94
2023-04-26T05:46:02.052Z,51.21
2023-04-26T05:48:29.817Z,51.15
2023-04-26T05:50:56.358Z,51.29
2023-04-26T05:53:22.955Z,50.87
2023-04-26T05:55:49.533Z,51.12
2023-04-26T05:58:16.120Z,50.81
2023-04-26T06:00:42.994Z,51.04
2023-04-26T06:03:09.771Z,51.40
2023-04-26T06:05:41.148Z,50.43
2023-04-26T06:08:08.020Z,50.21
2023-04-26T06:10:36.376Z,50.36
2023-04-26T06:13:03.482Z,50.24
2023-04-26T06:15:33.992Z,49.84
2023-04-26T06:18:00.656Z,49.40
2023-04-26T06:20:28.234Z,49.57
2023-04-26T06:22:54.804Z,48.68
2023-04-26T06:25:21.445Z,49.08
2023-04-26T06:27:48.196Z,49.29
2023-04-26T06:30:14.909Z,48.71
2023-04-26T06:32:45.883Z,48.54
2023-04-26T06:35:12.607Z,48.60
2023-04-26T06:37:39.604Z,48.42
2023-04-26T06:40:08.099Z,48.63
2023-04-26T06:42:34.707Z,48.67
2023-04-26T06:45:17.027Z,47.71
2023-04-26T06:47:44.788Z,47.58
2023-04-26T06:50:11.610Z,47.84
2023-04-26T06:52:38.780Z,47.82
2023-04-26T06:55:05.704Z,47.33
2023-04-26T06:57:32.361Z,46.06
2023-04-26T06:59:58.870Z,46.68
2023-04-26T07:02:25.711Z,46.60
2023-04-26T07:04:52.818Z,45.68
2023-04-26T07:07:19.583Z,45.72
2023-04-26T07:09:46.184Z,45.57
2023-04-26T07:12:13.255Z,44.71
2023-04-26T07:14:41.265Z,43.84
2023-04-26T07:17:07.813Z,44.00
2023-04-26T07:19:34.413Z,43.73
2023-04-26T07:22:01.448Z,44.20
2023-04-26T07:24:28.111Z,42.93
2023-04-26T07:26:54.682Z,42.75
2023-04-26T07:29:21.292Z,43.28
2023-04-26T07:31:48.513Z,42.98
2023-04-26T07:34:15.014Z,43.30
2023-04-26T07:36:41.555Z,43.13
2023-04-26T07:39:10.255Z,42.28
2023-04-26T07:41:36.883Z,42.53
2023-04-26T07:44:04.172Z,41.76
2023-04-26T07:46:30.712Z,42.43
2023-04-26T07:48:57.372Z,42.84
2023-04-26T07:51:23.918Z,42.01
2023-04-26T07:53:50.800Z,39.53
2023-04-26T07:56:17.777Z,39.41
2023-04-26T07:58:44.375Z,40.20
2023-04-26T08:01:11.791Z,39.40
2023-04-26T08:03:39.553Z,40.67
2023-04-26T08:06:06.559Z,38.73
2023-04-26T08:08:33.543Z,38.76
2023-04-26T08:11:00.482Z,38.43
2023-04-26T08:13:29.091Z,38.93
2023-04-26T08:15:55.949Z,39.27
2023-04-26T08:18:22.493Z,39.92
2023-04-26T08:20:49.036Z,38.77
2023-04-26T08:23:15.676Z,38.64
2023-04-26T08:25:42.276Z,38.56
2023-04-26T08:28:08.824Z,38.81
2023-04-26T08:30:35.503Z,39.81
2023-04-26T08:33:03.283Z,39.49
2023-04-26T08:35:29.915Z,37.53
2023-04-26T08:37:57.040Z,37.71
2023-04-26T08:40:25.060Z,39.16
2023-04-26T08:42:52.643Z,37.75
2023-04-26T08:45:20.547Z,38.23
2023-04-26T08:47:52.910Z,37.92
2023-04-26T08:50:21.408Z,38.06
2023-04-26T08:52:51.346Z,37.36
2023-04-26T08:55:22.292Z,36.10
2023-04-26T08:57:50.649Z,35.54
2023-04-26T09:00:19.607Z,35.45
2023-04-26T09:02:49.237Z,35.23
2023-04-26T09:05:16.093Z,35.71
2023-04-26T09:07:48.757Z,37.02
2023-04-26T09:10:22.165Z,37.74
2023-04-26T09:12:55.980Z,37.29
2023-04-26T09:15:23.976Z,37.48
2023-04-26T09:17:51.784Z,37.69
2023-04-26T09:20:24.384Z,38.00
2023-04-26T09:22:53.162Z,37.86
2023-04-26T09:25:28.037Z,37.27
2023-04-26T09:27:54.738Z,37.74
2023-04-26T09:30:22.172Z,36.91
2023-04-26T09:32:59.771Z,37.51
2023-04-26T09:35:36.435Z,36.01
2023-04-26T09:38:12.200Z,36.21
2023-04-26T09:40:42.983Z,36.78
2023-04-26T09:43:11.986Z,36.75
2023-04-26T09:45:58.986Z,37.16
2023-04-26T09:48:28.730Z,38.15
2023-04-26T09:50:57.993Z,38.16
2023-04-26T09:53:34.646Z,38.90
2023-04-26T09:56:13.696Z,39.80
2023-04-26T09:59:05.599Z,41.52
2023-04-26T10:01:34.847Z,41.73
2023-04-26T10:04:02.374Z,42.31
2023-04-26T10:06:29.310Z,43.02
2023-04-26T10:08:56.631Z,42.77
2023-04-26T10:11:23.759Z,42.58
2023-04-26T10:13:51.196Z,41.92
2023-04-26T10:16:18.740Z,40.60
2023-04-26T10:18:45.301Z,39.43
2023-04-26T10:21:19.851Z,39.28
2023-04-26T10:23:48.768Z,38.03
2023-04-26T10:26:52.706Z,36.14
2023-04-26T10:29:20.811Z,37.27
2023-04-26T10:32:02.782Z,35.29
2023-04-26T10:34:31.273Z,34.38
2023-04-26T10:37:12.538Z,34.91
2023-04-26T10:39:41.047Z,34.62
2023-04-26T10:42:26.519Z,33.42
2023-04-26T10:44:58.240Z,34.84
2023-04-26T10:47:28.482Z,32.75
2023-04-26T10:50:20.430Z,33.72
2023-04-26T10:53:03.652Z,32.29
2023-04-26T10:55:42.531Z,33.84
2023-04-26T10:58:28.742Z,30.44
2023-04-26T11:01:21.194Z,34.31
2023-04-26T11:03:57.482Z,32.65
2023-04-26T11:06:47.253Z,33.63
2023-04-26T11:09:33.136Z,31.06
2023-04-26T11:11:59.984Z,31.82
2023-04-26T11:14:26.576Z,30.92
2023-04-26T11:16:53.227Z,30.11
2023-04-26T11:19:19.824Z,30.28
2023-04-26T11:21:46.765Z,29.28
2023-04-26T11:24:16.008Z,29.91
2023-04-26T11:26:42.802Z,30.52
2023-04-26T11:29:13.323Z,29.41
2023-04-26T11:31:39.888Z,28.65
2023-04-26T11:34:06.553Z,27.87
2023-04-26T11:36:33.128Z,28.13
2023-04-26T11:39:02.501Z,28.71
2023-04-26T11:41:29.168Z,27.87
2023-04-26T11:43:56.094Z,28.79
2023-04-26T11:46:24.121Z,29.08
2023-04-26T11:48:51.776Z,29.35
2023-04-26T11:51:19.153Z,27.66
2023-04-26T11:53:45.783Z,28.44
2023-04-26T11:56:17.181Z,28.52
2023-04-26T11:58:48.651Z,29.72
2023-04-26T12:01:29.956Z,29.79
2023-04-26T12:03:59.141Z,29.16
2023-04-26T12:06:46.551Z,29.59
2023-04-26T12:09:13.498Z,28.21
2023-04-26T12:11:40.086Z,27.23
2023-04-26T12:14:08.099Z,26.35
2023-04-26T12:16:38.072Z,25.99
2023-04-26T12:19:08.944Z,25.04
2023-04-26T12:21:42.841Z,25.95
2023-04-26T12:24:21.138Z,25.29
2023-04-26T12:26:48.782Z,25.83
2023-04-26T12:29:15.474Z,25.69
2023-04-26T12:31:42.775Z,26.11
2023-04-26T12:34:09.692Z,26.38
2023-04-26T12:36:36.326Z,24.56
2023-04-26T12:39:05.229Z,24.60
2023-04-26T12:41:32.113Z,25.87
2023-04-26T12:43:58.747Z,28.47
2023-04-26T12:46:26.059Z,28.76
2023-04-26T12:48:53.109Z,28.49
2023-04-26T12:51:19.952Z,27.59
2023-04-26T12:53:46.510Z,27.82
2023-04-26T12:56:13.120Z,27.41
2023-04-26T12:58:39.637Z,26.93
2023-04-26T13:01:06.554Z,28.02
2023-04-26T13:03:33.350Z,27.83
2023-04-26T13:06:00.041Z,27.80
2023-04-26T13:08:26.659Z,26.00
2023-04-26T13:10:53.216Z,24.33
2023-04-26T13:13:22.039Z,23.06
2023-04-26T13:15:53.145Z,22.37
2023-04-26T13:18:19.755Z,22.91
2023-04-26T13:20:46.293Z,23.93
2023-04-26T13:23:12.820Z,24.18
2023-04-26T13:25:39.461Z,25.89
2023-04-26T13:28:05.974Z,26.00
2023-04-26T13:30:32.979Z,25.15
2023-04-26T13:33:00.329Z,25.69
2023-04-26T13:35:27.265Z,26.20
2023-04-26T13:37:53.864Z,25.77
2023-04-26T13:40:22.104Z,25.32
2023-04-26T13:42:48.700Z,26.06
2023-04-26T13:45:16.988Z,25.80
2023-04-26T13:47:45.060Z,26.46
2023-04-26T13:50:11.732Z,26.62
2023-04-26T13:52:38.598Z,27.26
2023-04-26T13:55:06.419Z,26.64
2023-04-26T13:57:33.423Z,24.71
2023-04-26T14:00:00.535Z,23.60
2023-04-26T14:02:30.247Z,21.89
2023-04-26T14:04:57.692Z,22.68
2023-04-26T14:07:26.316Z,23.08
2023-04-26T14:09:53.686Z,24.15
2023-04-26T14:12:20.569Z,25.25
2023-04-26T14:14:47.883Z,25.89
2023-04-26T14:17:14.533Z,25.60
2023-04-26T14:19:42.035Z,24.31
2023-04-26T14:22:12.572Z,24.35
2023-04-26T14:24:39.418Z,24.20
2023-04-26T14:27:05.952Z,24.71
2023-04-26T14:29:32.524Z,24.72
2023-04-26T14:31:59.211Z,25.55
2023-04-26T14:34:26.274Z,25.82
2023-04-26T14:36:52.830Z,25.63
2023-04-26T14:39:19.493Z,25.10
2023-04-26T14:41:46.359Z,25.74
2023-04-26T14:44:16.328Z,25.66
2023-04-26T14:46:43.002Z,26.77
2023-04-26T14:49:09.736Z,26.36
2023-04-26T14:51:36.617Z,26.28
2023-04-26T14:54:03.508Z,26.70
2023-04-26T14:56:34.227Z,26.26
2023-04-26T14:59:01.619Z,26.18
2023-04-26T15:01:28.248Z,26.64
2023-04-26T15:03:56.440Z,27.57
2023-04-26T15:06:24.477Z,28.17
2023-04-26T15:08:53.930Z,27.67
2023-04-26T15:11:20.998Z,27.86
2023-04-26T15:13:47.556Z,26.24
2023-04-26T15:16:14.127Z,26.24
2023-04-26T15:18:40.697Z,24.64
2023-04-26T15:21:07.248Z,25.35
2023-04-26T15:23:33.774Z,25.14
2023-04-26T15:26:04.303Z,25.46
2023-04-26T15:28:31.093Z,25.66
2023-04-26T15:31:05.610Z,25.74
2023-04-26T15:33:32.469Z,25.21
2023-04-26T15:35:59.028Z,25.21
2023-04-26T15:38:26.075Z,27.47
2023-04-26T15:40:53.831Z,26.46
2023-04-26T15:43:20.722Z,26.98
2023-04-26T15:45:48.869Z,27.40
2023-04-26T15:48:15.783Z,27.29
2023-04-26T15:50:42.510Z,27.73
2023-04-26T15:53:09.249Z,28.13
2023-04-26T15:55:35.817Z,27.60
2023-04-26T15:58:02.422Z,28.02
2023-04-26T16:00:29.098Z,28.06
2023-04-26T16:02:55.877Z,28.10
2023-04-26T16:05:22.622Z,27.24
2023-04-26T16:07:49.177Z,28.47
2023-04-26T16:10:16.317Z,27.80
2023-04-26T16:12:44.365Z,27.66
2023-04-26T16:15:11.120Z,27.36
2023-04-26T16:17:38.105Z,27.83
2023-04-26T16:20:06.791Z,28.43
2023-04-26T16:22:34.483Z,27.94
2023-04-26T16:25:01.565Z,27.50
2023-04-26T16:27:28.088Z,27.86
2023-04-26T16:29:55.797Z,29.06
2023-04-26T16:32:22.584Z,28.68
2023-04-26T16:34:49.166Z,28.61
2023-04-26T16:37:15.694Z,28.33
2023-04-26T16:39:42.227Z,28.52
2023-04-26T16:42:08.788Z,28.50
2023-04-26T16:44:35.360Z,29.08
2023-04-26T16:47:02.201Z,29.03
2023-04-26T16:49:28.727Z,29.07
2023-04-26T16:51:58.913Z,29.25
2023-04-26T16:54:26.224Z,29.04
2023-04-26T16:56:52.983Z,29.41
2023-04-26T16:59:19.666Z,29.32
2023-04-26T17:01:47.225Z,29.95
2023-04-26T17:04:13.980Z,29.68
2023-04-26T17:06:40.725Z,29.73
2023-04-26T17:09:08.529Z,30.01
2023-04-26T17:11:37.134Z,30.41
2023-04-26T17:14:04.310Z,30.27
2023-04-26T17:16:31.151Z,29.95
2023-04-26T17:18:58.216Z,30.26
2023-04-26T17:21:24.751Z,30.37
2023-04-26T17:23:51.328Z,30.31
2023-04-26T17:26:17.948Z,30.19
2023-04-26T17:28:44.528Z,30.58
2023-04-26T17:31:11.162Z,30.59
2023-04-26T17:33:37.753Z,30.75
2023-04-26T17:36:04.768Z,30.30
2023-04-26T17:38:31.325Z,30.52
2023-04-26T17:40:59.313Z,30.65
2023-04-26T17:43:25.938Z,30.51
2023-04-26T17:45:52.549Z,31.05
2023-04-26T17:48:19.208Z,31.10
2023-04-26T17:50:46.004Z,30.58
2023-04-26T17:53:12.618Z,31.31
2023-04-26T17:55:39.126Z,31.95
2023-04-26T17:58:05.708Z,32.36
2023-04-26T18:00:32.218Z,32.96
2023-04-26T18:02:59.534Z,32.70
2023-04-26T18:05:26.326Z,32.27
2023-04-26T18:07:52.902Z,32.64
2023-04-26T18:10:19.659Z,33.28
2023-04-26T18:12:46.252Z,33.13
2023-04-26T18:15:13.818Z,34.10
2023-04-26T18:17:41.181Z,34.64
2023-04-26T18:20:08.425Z,34.23
2023-04-26T18:22:34.976Z,33.98
2023-04-26T18:25:01.522Z,33.93
2023-04-26T18:27:28.071Z,34.19
2023-04-26T18:29:54.633Z,33.79
2023-04-26T18:32:21.224Z,33.66
2023-04-26T18:34:47.985Z,33.92
2023-04-26T18:37:14.541Z,34.30
2023-04-26T18:39:41.262Z,34.06
2023-04-26T18:42:07.872Z,34.57
2023-04-26T18:44:34.411Z,34.72
2023-04-26T18:47:00.965Z,34.47
2023-04-26T18:49:27.506Z,34.43
2023-04-26T18:51:54.211Z,35.30
2023-04-26T18:54:20.912Z,35.26
2023-04-26T18:56:47.500Z,35.01
2023-04-26T18:59:14.046Z,35.57
2023-04-26T19:01:41.084Z,36.09
2023-04-26T19:04:08.973Z,37.59
2023-04-26T19:06:35.786Z,38.19
2023-04-26T19:09:02.565Z,38.14
2023-04-26T19:11:29.128Z,37.40
2023-04-26T19:13:55.765Z,36.74
2023-04-26T19:16:22.407Z,37.54
2023-04-26T19:18:49.138Z,37.39
2023-04-26T19:21:16.251Z,37.89
2023-04-26T19:23:44.371Z,38.31
2023-04-26T19:26:12.738Z,37.31
2023-04-26T19:28:39.573Z,37.24
2023-04-26T19:31:06.695Z,37.57
2023-04-26T19:33:33.526Z,37.37
2023-04-26T19:36:00.022Z,37.76
2023-04-26T19:38:26.544Z,38.27
2023-04-26T19:40:53.361Z,39.37
2023-04-26T19:43:20.776Z,39.06
2023-04-26T19:45:47.663Z,38.65
2023-04-26T19:48:14.424Z,38.84
2023-04-26T19:50:42.232Z,38.64
2023-04-26T19:53:09.902Z,39.58
2023-04-26T19:55:37.873Z,39.50
2023-04-26T19:58:05.351Z,39.21
2023-04-26T20:00:35.444Z,39.29
2023-04-26T20:03:02.905Z,40.13
2023-04-26T20:05:29.855Z,40.41
2023-04-26T20:07:59.258Z,40.88
2023-04-26T20:10:25.948Z,40.36
2023-04-26T20:12:53.240Z,41.00
2023-04-26T20:15:19.953Z,40.94
2023-04-26T20:17:46.576Z,40.86
2023-04-26T20:20:13.257Z,41.02
2023-04-26T20:22:40.657Z,41.01
2023-04-26T20:25:07.684Z,40.88
2023-04-26T20:27:34.217Z,41.25
2023-04-26T20:30:01.057Z,41.60
2023-04-26T20:32:27.875Z,41.94
2023-04-26T20:34:54.414Z,41.61
2023-04-26T20:37:21.765Z,42.03
2023-04-26T20:39:48.933Z,41.57
2023-04-26T20:42:15.948Z,41.30
2023-04-26T20:44:42.618Z,41.65
2023-04-26T20:47:09.234Z,42.38
2023-04-26T20:49:35.870Z,42.66
2023-04-26T20:52:02.410Z,43.58
2023-04-26T20:54:28.933Z,43.30
2023-04-26T20:56:55.483Z,43.91
2023-04-26T20:59:23.082Z,44.32
2023-04-26T21:01:50.540Z,44.19
2023-04-26T21:04:17.256Z,44.26
2023-04-26T21:06:43.907Z,44.48
2023-04-26T21:09:11.397Z,44.36
2023-04-26T21:11:38.208Z,43.77
2023-04-26T21:14:05.321Z,44.17
2023-04-26T21:16:31.926Z,43.60
2023-04-26T21:18:58.438Z,44.06
2023-04-26T21:21:27.697Z,43.33
2023-04-26T21:23:54.776Z,43.50
2023-04-26T21:26:21.393Z,43.74
2023-04-26T21:28:48.623Z,43.93
2023-04-26T21:31:15.482Z,44.06
2023-04-26T21:33:42.841Z,44.15
2023-04-26T21:36:09.441Z,44.04
2023-04-26T21:38:36.075Z,44.33
2023-04-26T21:41:02.593Z,44.58
2023-04-26T21:43:29.145Z,44.27
2023-04-26T21:45:57.706Z,44.01
2023-04-26T21:48:24.925Z,44.11
2023-04-26T21:50:51.624Z,44.15
2023-04-26T21:53:18.572Z,44.03
2023-04-26T21:55:50.831Z,43.93
2023-04-26T21:58:17.477Z,43.80
2023-04-26T22:00:44.134Z,44.03
2023-04-26T22:03:10.825Z,44.27
2023-04-26T22:05:37.564Z,44.12
2023-04-26T22:08:04.354Z,44.17
2023-04-26T22:10:30.984Z,44.32
2023-04-26T22:12:57.547Z,44.59
2023-04-26T22:15:24.145Z,44.90
2023-04-26T22:17:50.775Z,45.25
2023-04-26T22:20:17.382Z,45.03
2023-04-26T22:22:43.961Z,45.11
2023-04-26T22:25:10.508Z,45.01
2023-04-26T22:27:37.015Z,45.08
2023-04-26T22:30:16.214Z,45.23
2023-04-26T22:32:53.442Z,44.49
2023-04-26T22:35:20.391Z,44.74
2023-04-26T22:37:47.365Z,44.86
2023-04-26T22:40:15.155Z,45.30
2023-04-26T22:42:42.702Z,45.23
2023-04-26T22:45:10.774Z,45.67
2023-04-26T22:47:37.514Z,45.65
2023-04-26T22:50:05.247Z,45.62
2023-04-26T22:52:32.389Z,46.26
2023-04-26T22:55:02.482Z,45.73
2023-04-26T22:57:29.891Z,45.62
2023-04-26T22:59:56.579Z,45.36
2023-04-26T23:02:23.476Z,45.79
2023-04-26T23:04:50.144Z,45.58
2023-04-26T23:07:16.762Z,45.91
2023-04-26T23:09:43.367Z,45.88
2023-04-26T23:12:09.946Z,45.44
2023-04-26T23:14:37.663Z,45.93
2023-04-26T23:17:04.437Z,46.18
2023-04-26T23:19:31.446Z,46.38
2023-04-26T23:21:57.957Z,46.53
2023-04-26T23:24:24.484Z,46.43
2023-04-26T23:26:51.155Z,46.38
2023-04-26T23:29:17.652Z,46.30
2023-04-26T23:31:44.216Z,46.11
2023-04-26T23:34:10.876Z,46.30
2023-04-26T23:36:37.430Z,46.70
2023-04-26T23:39:04.006Z,46.30
2023-04-26T23:41:30.901Z,47.15
2023-04-26T23:43:57.449Z,46.62
2023-04-26T23:46:24.023Z,46.18
2023-04-26T23:48:50.712Z,46.46
2023-04-26T23:51:17.252Z,46.70
2023-04-26T23:53:44.801Z,46.69
2023-04-26T23:56:11.435Z,46.81
2023-04-26T23:58:37.970Z,47.44
